Deadwood, Oregon
Current Conditions -  °F | °C
As of 5:54 PM on Saturday 25 Oct 2014 (Local Time) from KEUG Reporting Station
Overcast Overcast  
Wind Chill: 55°   Ceiling: 3600
Heat Index: 55°   Visibility: 10mi
Dew Point: 49°   Wind: 16mph
Humidity: 80%   Direction: 230°SW
Pressure: 29.8"   Gusts: NA
Location:  44.1°N, 123.76°W
Report Text: KEUG 260054Z 23014KT 10SM SCT031 BKN036 OVC050 13/09 A2980 RMK AO2 PK WND 23026/0018 RAE27 PRESRR SLP092 VCSH P0001 T01280094 $
Loading
Personal Weather Stations






























Interactive Weather Map New forecast layout! Learn more

10-Day Weather Forecast

Advertisements
Track Severe Weather on mobile